createdAt,value
2019-05-26T00:01:43.424Z,99.90
2019-05-26T00:04:14.601Z,99.90
2019-05-26T00:06:45.527Z,99.90
2019-05-26T00:09:16.693Z,99.90
2019-05-26T00:11:47.533Z,99.90
2019-05-26T00:14:18.707Z,99.90
2019-05-26T00:16:48.820Z,99.90
2019-05-26T00:19:18.378Z,99.90
2019-05-26T00:21:49.046Z,99.90
2019-05-26T00:24:19.269Z,99.90
2019-05-26T00:26:48.917Z,99.90
2019-05-26T00:29:18.523Z,99.90
2019-05-26T00:31:49.721Z,99.90
2019-05-26T00:34:19.427Z,99.90
2019-05-26T00:36:49.123Z,99.90
2019-05-26T00:39:18.752Z,99.90
2019-05-26T00:41:48.466Z,99.90
2019-05-26T00:44:18.228Z,99.90
2019-05-26T00:46:47.777Z,99.90
2019-05-26T00:49:17.466Z,99.90
2019-05-26T00:51:48.184Z,99.90
2019-05-26T00:54:17.726Z,99.90
2019-05-26T00:56:49.020Z,99.90
2019-05-26T00:59:18.712Z,99.90
2019-05-26T01:01:48.288Z,99.90
2019-05-26T01:04:17.835Z,99.90
2019-05-26T01:06:47.408Z,99.90
2019-05-26T01:09:16.961Z,99.90
2019-05-26T01:11:46.518Z,99.90
2019-05-26T01:14:16.087Z,99.90
2019-05-26T01:16:47.305Z,99.90
2019-05-26T01:19:17.017Z,99.90
2019-05-26T01:21:46.563Z,99.90
2019-05-26T01:24:17.337Z,99.90
2019-05-26T01:26:47.013Z,99.90
2019-05-26T01:29:19.985Z,99.90
2019-05-26T01:32:02.156Z,99.90
2019-05-26T01:34:30.917Z,99.90
2019-05-26T01:37:02.086Z,99.90
2019-05-26T01:39:31.914Z,99.90
2019-05-26T01:42:03.015Z,99.90
2019-05-26T01:44:32.716Z,99.90
2019-05-26T01:47:02.269Z,99.90
2019-05-26T01:49:31.853Z,99.90
2019-05-26T01:52:01.483Z,99.90
2019-05-26T01:54:32.142Z,99.90
2019-05-26T01:57:01.728Z,99.90
2019-05-26T01:59:31.280Z,99.90
2019-05-26T02:02:00.942Z,99.90
2019-05-26T02:04:30.578Z,99.90
2019-05-26T02:07:01.279Z,99.90
2019-05-26T02:09:30.861Z,99.90
2019-05-26T02:12:00.526Z,99.90
2019-05-26T02:14:30.100Z,99.90
2019-05-26T02:16:59.744Z,99.90
2019-05-26T02:19:29.363Z,99.90
2019-05-26T02:21:58.993Z,99.90
2019-05-26T02:24:28.560Z,99.90
2019-05-26T02:26:58.126Z,99.90
2019-05-26T02:29:27.668Z,99.90
2019-05-26T02:31:57.231Z,99.90
2019-05-26T02:34:26.770Z,99.90
2019-05-26T02:36:56.322Z,99.90
2019-05-26T02:39:25.905Z,99.90
2019-05-26T02:41:55.449Z,99.90
2019-05-26T02:44:25.092Z,99.90
2019-05-26T02:46:54.697Z,99.90
2019-05-26T02:49:24.314Z,99.90
2019-05-26T02:51:53.846Z,99.90
2019-05-26T02:54:23.421Z,99.90
2019-05-26T02:56:53.321Z,99.90
2019-05-26T02:59:22.840Z,99.90
2019-05-26T03:02:02.941Z,99.90
2019-05-26T03:04:23.732Z,99.90
2019-05-26T03:06:54.909Z,99.90
2019-05-26T03:09:26.989Z,99.90
2019-05-26T03:11:59.084Z,99.90
2019-05-26T03:14:29.253Z,99.90
2019-05-26T03:17:01.813Z,99.90
2019-05-26T03:19:35.921Z,99.90
2019-05-26T03:22:05.992Z,99.90
2019-05-26T03:24:37.174Z,99.90
2019-05-26T03:27:06.868Z,99.90
2019-05-26T03:29:36.592Z,99.90
2019-05-26T03:32:06.148Z,99.90
2019-05-26T03:34:35.689Z,99.90
2019-05-26T03:37:05.313Z,99.90
2019-05-26T03:39:44.389Z,99.90
2019-05-26T03:42:07.281Z,99.90
2019-05-26T03:44:36.844Z,99.90
2019-05-26T03:47:09.476Z,99.90
2019-05-26T03:49:39.042Z,99.90
2019-05-26T03:52:08.667Z,99.90
2019-05-26T03:54:38.233Z,99.90
2019-05-26T03:57:07.771Z,99.90
2019-05-26T03:59:37.347Z,99.90
2019-05-26T04:02:08.490Z,99.90
2019-05-26T04:04:38.039Z,99.90
2019-05-26T04:07:07.725Z,99.90
2019-05-26T04:09:37.450Z,99.90
2019-05-26T04:12:07.087Z,99.90
2019-05-26T04:14:38.207Z,99.90
2019-05-26T04:17:07.846Z,99.90
2019-05-26T04:19:37.379Z,99.90
2019-05-26T04:22:09.945Z,99.90
2019-05-26T04:24:44.171Z,99.90
2019-05-26T04:27:14.554Z,99.90
2019-05-26T04:29:44.164Z,99.90
2019-05-26T04:32:13.733Z,99.90
2019-05-26T04:34:43.281Z,99.90
2019-05-26T04:37:12.994Z,99.90
2019-05-26T04:39:42.626Z,99.90
2019-05-26T04:42:12.195Z,99.90
2019-05-26T04:44:41.739Z,99.90
2019-05-26T04:47:11.361Z,99.90
2019-05-26T04:49:40.918Z,99.90
2019-05-26T04:52:10.478Z,99.90
2019-05-26T04:54:40.034Z,99.90
2019-05-26T04:57:09.605Z,99.90
2019-05-26T04:59:39.144Z,99.90
2019-05-26T05:02:08.840Z,99.90
2019-05-26T05:04:38.395Z,99.90
2019-05-26T05:07:07.961Z,99.90
2019-05-26T05:09:37.547Z,99.90
2019-05-26T05:12:07.164Z,99.90
2019-05-26T05:14:36.734Z,99.90
2019-05-26T05:17:06.452Z,99.90
2019-05-26T05:19:36.072Z,99.90
2019-05-26T05:22:05.954Z,99.90
2019-05-26T05:24:35.589Z,99.90
2019-05-26T05:27:05.269Z,99.90
2019-05-26T05:29:34.839Z,99.90
2019-05-26T05:32:04.523Z,99.90
2019-05-26T05:34:34.091Z,99.90
2019-05-26T05:37:03.699Z,99.90
2019-05-26T05:39:33.415Z,99.90
2019-05-26T05:42:03.029Z,99.90
2019-05-26T05:44:32.576Z,99.90
2019-05-26T05:47:02.199Z,99.90
2019-05-26T05:49:31.764Z,99.90
2019-05-26T05:52:02.448Z,99.90
2019-05-26T05:54:32.020Z,99.90
2019-05-26T05:57:01.560Z,99.90
2019-05-26T05:59:31.121Z,99.90
2019-05-26T06:02:00.731Z,99.90
2019-05-26T06:04:30.297Z,99.90
2019-05-26T06:06:59.844Z,99.90
2019-05-26T06:09:29.472Z,99.90
2019-05-26T06:11:59.047Z,99.90
2019-05-26T06:14:28.677Z,99.90
2019-05-26T06:16:58.342Z,99.90
2019-05-26T06:19:27.945Z,99.20
2019-05-26T06:21:57.588Z,98.30
2019-05-26T06:24:27.143Z,99.90
2019-05-26T06:26:56.714Z,99.90
2019-05-26T06:29:26.268Z,99.90
2019-05-26T06:31:56.214Z,99.90
2019-05-26T06:34:26.212Z,99.90
2019-05-26T06:36:55.917Z,99.90
2019-05-26T06:39:25.486Z,99.90
2019-05-26T06:41:55.102Z,99.90
2019-05-26T06:44:24.670Z,99.90
2019-05-26T06:46:54.310Z,99.90
2019-05-26T06:49:23.865Z,99.90
2019-05-26T06:51:54.563Z,99.90
2019-05-26T06:54:24.111Z,99.80
2019-05-26T06:56:53.699Z,98.80
2019-05-26T06:59:23.362Z,95.80
2019-05-26T07:01:52.985Z,96.60
2019-05-26T07:04:22.612Z,96.90
2019-05-26T07:06:52.304Z,94.50
2019-05-26T07:09:21.860Z,94.70
2019-05-26T07:11:59.064Z,96.10
2019-05-26T07:14:22.619Z,95.10
2019-05-26T07:16:52.267Z,96.20
2019-05-26T07:19:21.832Z,94.30
2019-05-26T07:21:51.412Z,95.10
2019-05-26T07:24:21.134Z,94.40
2019-05-26T07:26:50.703Z,93.80
2019-05-26T07:29:20.254Z,93.40
2019-05-26T07:31:49.853Z,93.80
2019-05-26T07:34:19.469Z,93.70
2019-05-26T07:36:49.036Z,94.10
2019-05-26T07:39:18.659Z,95.00
2019-05-26T07:41:48.291Z,95.20
2019-05-26T07:44:17.832Z,92.70
2019-05-26T07:46:50.432Z,92.10
2019-05-26T07:49:20.003Z,92.50
2019-05-26T07:51:49.547Z,91.40
2019-05-26T07:54:25.572Z,90.40
2019-05-26T07:56:50.372Z,90.20
2019-05-26T07:59:19.918Z,89.90
2019-05-26T08:01:49.480Z,89.70
2019-05-26T08:04:19.032Z,89.20
2019-05-26T08:06:48.650Z,89.60
2019-05-26T08:09:18.197Z,90.30
2019-05-26T08:11:47.752Z,88.80
2019-05-26T08:14:17.300Z,89.40
2019-05-26T08:16:46.981Z,87.10
2019-05-26T08:19:16.644Z,86.80
2019-05-26T08:21:46.181Z,86.90
2019-05-26T08:24:15.805Z,89.30
2019-05-26T08:26:45.362Z,88.30
2019-05-26T08:29:14.923Z,90.20
2019-05-26T08:31:44.469Z,90.00
2019-05-26T08:34:14.008Z,90.20
2019-05-26T08:36:43.581Z,87.60
2019-05-26T08:39:13.123Z,88.40
2019-05-26T08:41:43.511Z,86.80
2019-05-26T08:44:14.151Z,85.60
2019-05-26T08:46:43.709Z,86.70
2019-05-26T08:49:13.304Z,83.40
2019-05-26T08:51:42.939Z,81.80
2019-05-26T08:54:12.548Z,82.30
2019-05-26T08:56:43.360Z,82.10
2019-05-26T08:59:12.956Z,81.00
2019-05-26T09:01:42.633Z,78.20
2019-05-26T09:04:12.186Z,78.20
2019-05-26T09:06:41.746Z,77.20
2019-05-26T09:09:12.352Z,75.30
2019-05-26T09:11:42.373Z,75.20
2019-05-26T09:14:11.991Z,76.40
2019-05-26T09:16:41.613Z,73.90
2019-05-26T09:19:11.226Z,72.90
2019-05-26T09:21:40.794Z,72.70
2019-05-26T09:24:10.344Z,71.50
2019-05-26T09:26:39.890Z,69.70
2019-05-26T09:29:09.451Z,71.80
2019-05-26T09:31:39.013Z,70.10
2019-05-26T09:34:08.565Z,69.60
2019-05-26T09:36:38.182Z,68.00
2019-05-26T09:39:08.360Z,69.70
2019-05-26T09:41:37.992Z,67.90
2019-05-26T09:44:07.694Z,69.70
2019-05-26T09:46:37.250Z,65.00
2019-05-26T09:49:06.855Z,65.20
2019-05-26T09:51:36.475Z,65.40
2019-05-26T09:54:06.096Z,66.30
2019-05-26T09:56:36.161Z,66.30
2019-05-26T09:59:07.218Z,66.30
2019-05-26T10:01:36.786Z,67.80
2019-05-26T10:04:06.396Z,68.60
2019-05-26T10:06:37.190Z,65.60
2019-05-26T10:09:08.397Z,67.40
2019-05-26T10:11:38.271Z,67.10
2019-05-26T10:14:08.021Z,67.80
2019-05-26T10:16:37.597Z,66.00
2019-05-26T10:19:07.189Z,65.60
2019-05-26T10:21:36.747Z,62.10
2019-05-26T10:24:07.715Z,62.60
2019-05-26T10:26:37.282Z,65.30
2019-05-26T10:29:06.821Z,63.90
2019-05-26T10:31:36.410Z,65.30
2019-05-26T10:34:06.157Z,64.10
2019-05-26T10:36:35.794Z,62.90
2019-05-26T10:39:08.305Z,63.80
2019-05-26T10:41:39.514Z,64.00
2019-05-26T10:44:09.192Z,62.80
2019-05-26T10:46:38.866Z,59.30
2019-05-26T10:49:08.444Z,60.70
2019-05-26T10:51:37.997Z,62.30
2019-05-26T10:54:07.607Z,62.60
2019-05-26T10:56:37.176Z,63.10
2019-05-26T10:59:06.998Z,64.00
2019-05-26T11:01:36.608Z,64.10
2019-05-26T11:04:06.338Z,64.10
2019-05-26T11:06:35.969Z,64.20
2019-05-26T11:09:09.126Z,64.70
2019-05-26T11:11:39.556Z,63.30
2019-05-26T11:14:09.149Z,64.20
2019-05-26T11:16:38.781Z,61.90
2019-05-26T11:19:11.002Z,62.50
2019-05-26T11:21:40.541Z,61.80
2019-05-26T11:24:10.199Z,61.60
2019-05-26T11:26:39.808Z,62.00
2019-05-26T11:29:09.368Z,62.90
2019-05-26T11:31:38.934Z,61.30
2019-05-26T11:34:08.562Z,61.50
2019-05-26T11:36:38.179Z,61.00
2019-05-26T11:39:08.540Z,60.30
2019-05-26T11:41:38.085Z,59.40
2019-05-26T11:44:17.494Z,60.40
2019-05-26T11:46:38.897Z,59.30
2019-05-26T11:49:08.444Z,58.90
2019-05-26T11:51:38.046Z,59.70
2019-05-26T11:54:07.669Z,58.50
2019-05-26T11:56:37.230Z,57.90
2019-05-26T11:59:06.864Z,58.00
2019-05-26T12:01:36.495Z,57.30
2019-05-26T12:04:06.111Z,56.70
2019-05-26T12:06:35.725Z,57.20
2019-05-26T12:09:08.958Z,55.40
2019-05-26T12:11:38.548Z,57.00
2019-05-26T12:14:08.252Z,56.60
2019-05-26T12:16:37.859Z,57.30
2019-05-26T12:19:07.540Z,56.90
2019-05-26T12:21:37.110Z,57.50
2019-05-26T12:24:06.794Z,56.40
2019-05-26T12:26:36.341Z,55.40
2019-05-26T12:29:05.984Z,54.50
2019-05-26T12:31:35.561Z,56.30
2019-05-26T12:34:05.234Z,55.70
2019-05-26T12:36:38.347Z,55.80
2019-05-26T12:39:08.802Z,56.30
2019-05-26T12:41:38.379Z,56.20
2019-05-26T12:44:10.964Z,55.30
2019-05-26T12:46:39.242Z,53.80
2019-05-26T12:49:08.875Z,53.20
2019-05-26T12:51:38.404Z,51.50
2019-05-26T12:54:08.117Z,51.40
2019-05-26T12:56:37.720Z,51.60
2019-05-26T12:59:07.416Z,52.30
2019-05-26T13:01:36.970Z,53.60
2019-05-26T13:04:06.604Z,54.80
2019-05-26T13:06:36.240Z,55.00
2019-05-26T13:09:09.038Z,55.80
2019-05-26T13:11:38.654Z,55.80
2019-05-26T13:14:08.337Z,56.50
2019-05-26T13:16:38.024Z,56.10
2019-05-26T13:19:07.741Z,55.30
2019-05-26T13:21:37.429Z,55.70
2019-05-26T13:24:07.141Z,55.50
2019-05-26T13:26:36.711Z,54.60
2019-05-26T13:29:06.323Z,54.70
2019-05-26T13:31:35.968Z,54.60
2019-05-26T13:34:05.658Z,54.30
2019-05-26T13:36:35.229Z,54.80
2019-05-26T13:39:10.179Z,54.40
2019-05-26T13:41:39.759Z,56.00
2019-05-26T13:44:09.356Z,55.80
2019-05-26T13:46:38.912Z,56.00
2019-05-26T13:49:08.533Z,55.40
2019-05-26T13:51:38.116Z,55.70
2019-05-26T13:54:08.222Z,56.40
2019-05-26T13:56:42.107Z,55.30
2019-05-26T13:59:17.374Z,55.20
2019-05-26T14:01:45.338Z,55.10
2019-05-26T14:04:14.963Z,53.90
2019-05-26T14:06:44.509Z,54.50
2019-05-26T14:09:14.156Z,53.80
2019-05-26T14:11:43.754Z,52.50
2019-05-26T14:14:13.326Z,51.60
2019-05-26T14:16:44.785Z,52.00
2019-05-26T14:19:15.766Z,52.70
2019-05-26T14:21:45.300Z,52.80
2019-05-26T14:24:14.927Z,52.70
2019-05-26T14:26:44.542Z,52.20
2019-05-26T14:29:14.112Z,54.10
2019-05-26T14:31:43.633Z,54.30
2019-05-26T14:34:13.248Z,55.00
2019-05-26T14:36:42.800Z,54.40
2019-05-26T14:39:12.419Z,54.30
2019-05-26T14:41:41.981Z,54.40
2019-05-26T14:44:12.590Z,53.10
2019-05-26T14:46:42.131Z,53.10
2019-05-26T14:49:11.748Z,53.80
2019-05-26T14:51:41.301Z,52.40
2019-05-26T14:54:10.831Z,53.20
2019-05-26T14:56:40.370Z,54.00
2019-05-26T14:59:09.931Z,53.70
2019-05-26T15:01:39.474Z,53.40
2019-05-26T15:04:09.006Z,54.40
2019-05-26T15:06:38.542Z,55.10
2019-05-26T15:09:22.403Z,56.70
2019-05-26T15:11:39.230Z,56.50
2019-05-26T15:14:09.846Z,56.20
2019-05-26T15:16:39.387Z,57.00
2019-05-26T15:19:08.998Z,57.40
2019-05-26T15:21:38.553Z,57.80
2019-05-26T15:24:08.154Z,59.10
2019-05-26T15:26:37.764Z,59.30
2019-05-26T15:29:07.389Z,57.20
2019-05-26T15:31:36.961Z,57.10
2019-05-26T15:34:06.636Z,58.60
2019-05-26T15:36:36.216Z,58.80
2019-05-26T15:39:07.005Z,58.80
2019-05-26T15:41:36.544Z,58.30
2019-05-26T15:44:06.098Z,58.20
2019-05-26T15:46:35.785Z,58.50
2019-05-26T15:49:05.470Z,58.80
2019-05-26T15:51:35.179Z,58.90
2019-05-26T15:54:04.869Z,59.20
2019-05-26T15:56:34.430Z,59.80
2019-05-26T15:59:04.422Z,60.90
2019-05-26T16:01:34.133Z,61.60
2019-05-26T16:04:03.833Z,61.70
2019-05-26T16:06:33.551Z,60.50
2019-05-26T16:09:04.834Z,61.70
2019-05-26T16:11:34.476Z,62.90
2019-05-26T16:14:04.126Z,63.50
2019-05-26T16:16:41.330Z,64.40
2019-05-26T16:19:06.614Z,64.30
2019-05-26T16:21:36.178Z,65.00
2019-05-26T16:24:06.944Z,65.30
2019-05-26T16:26:37.539Z,65.60
2019-05-26T16:29:07.445Z,65.90
2019-05-26T16:31:37.019Z,65.50
2019-05-26T16:34:09.805Z,64.70
2019-05-26T16:36:39.375Z,66.20
2019-05-26T16:39:09.072Z,64.60
2019-05-26T16:41:38.702Z,65.30
2019-05-26T16:44:08.244Z,66.00
2019-05-26T16:46:39.067Z,65.70
2019-05-26T16:49:08.689Z,65.00
2019-05-26T16:51:38.397Z,63.70
2019-05-26T16:54:08.509Z,65.20
2019-05-26T16:56:40.842Z,64.50
2019-05-26T16:59:10.556Z,64.30
2019-05-26T17:01:40.163Z,63.70
2019-05-26T17:04:11.566Z,64.90
2019-05-26T17:06:42.375Z,65.70
2019-05-26T17:09:11.983Z,65.70
2019-05-26T17:11:42.413Z,66.40
2019-05-26T17:14:13.509Z,66.80
2019-05-26T17:16:43.033Z,67.20
2019-05-26T17:19:12.702Z,67.00
2019-05-26T17:21:42.269Z,67.20
2019-05-26T17:24:11.901Z,67.50
2019-05-26T17:26:41.611Z,68.10
2019-05-26T17:29:11.263Z,69.10
2019-05-26T17:31:40.805Z,70.20
2019-05-26T17:34:10.387Z,70.80
2019-05-26T17:36:39.999Z,71.40
2019-05-26T17:39:09.817Z,71.50
2019-05-26T17:41:39.373Z,71.90
2019-05-26T17:44:09.006Z,72.40
2019-05-26T17:46:39.707Z,72.50
2019-05-26T17:49:09.392Z,72.90
2019-05-26T17:51:39.103Z,73.40
2019-05-26T17:54:08.864Z,73.20
2019-05-26T17:56:38.583Z,73.90
2019-05-26T17:59:09.260Z,73.10
2019-05-26T18:01:41.392Z,72.90
2019-05-26T18:04:11.323Z,73.80
2019-05-26T18:06:41.107Z,74.20
2019-05-26T18:09:10.764Z,73.90
2019-05-26T18:11:40.365Z,73.20
2019-05-26T18:14:09.966Z,73.90
2019-05-26T18:16:39.617Z,73.80
2019-05-26T18:19:09.176Z,74.40
2019-05-26T18:21:39.471Z,74.70
2019-05-26T18:24:10.160Z,75.00
2019-05-26T18:26:39.744Z,75.80
2019-05-26T18:29:09.303Z,77.10
2019-05-26T18:31:40.081Z,77.70
2019-05-26T18:34:10.458Z,76.80
2019-05-26T18:36:41.197Z,77.00
2019-05-26T18:39:11.312Z,77.50
2019-05-26T18:41:42.488Z,78.00
2019-05-26T18:44:12.238Z,78.10
2019-05-26T18:46:41.854Z,78.40
2019-05-26T18:49:11.490Z,78.80
2019-05-26T18:51:41.105Z,78.70
2019-05-26T18:54:10.824Z,79.70
2019-05-26T18:56:40.512Z,80.60
2019-05-26T18:59:10.061Z,80.50
2019-05-26T19:01:39.639Z,81.10
2019-05-26T19:04:09.327Z,81.10
2019-05-26T19:06:38.905Z,81.40
2019-05-26T19:09:10.206Z,81.80
2019-05-26T19:11:39.865Z,82.30
2019-05-26T19:14:09.546Z,82.20
2019-05-26T19:16:39.184Z,82.90
2019-05-26T19:19:08.886Z,83.20
2019-05-26T19:21:38.477Z,83.20
2019-05-26T19:24:08.167Z,83.40
2019-05-26T19:26:37.808Z,83.40
2019-05-26T19:29:07.405Z,83.90
2019-05-26T19:31:36.946Z,84.10
2019-05-26T19:34:06.620Z,84.00
2019-05-26T19:36:36.163Z,84.50
2019-05-26T19:39:09.128Z,84.40
2019-05-26T19:41:39.481Z,84.10
2019-05-26T19:44:09.364Z,84.70
2019-05-26T19:46:39.061Z,84.70
2019-05-26T19:49:08.616Z,84.90
2019-05-26T19:51:38.333Z,84.80
2019-05-26T19:54:08.088Z,85.00
2019-05-26T19:56:37.857Z,85.70
2019-05-26T19:59:07.565Z,85.70
2019-05-26T20:01:37.321Z,86.20
2019-05-26T20:04:07.037Z,86.00
2019-05-26T20:06:36.781Z,86.10
2019-05-26T20:09:08.333Z,86.30
2019-05-26T20:11:38.121Z,86.30
2019-05-26T20:14:08.476Z,86.80
2019-05-26T20:16:38.954Z,86.90
2019-05-26T20:19:08.550Z,86.50
2019-05-26T20:21:38.185Z,87.30
2019-05-26T20:24:07.930Z,86.40
2019-05-26T20:26:37.635Z,86.00
2019-05-26T20:29:08.693Z,86.50
2019-05-26T20:31:38.378Z,85.30
2019-05-26T20:34:08.615Z,85.70
2019-05-26T20:36:38.382Z,84.70
2019-05-26T20:39:09.389Z,84.00
2019-05-26T20:41:39.146Z,83.80
2019-05-26T20:44:08.772Z,82.70
2019-05-26T20:46:38.445Z,82.70
2019-05-26T20:49:09.197Z,82.40
2019-05-26T20:51:38.748Z,82.10
2019-05-26T20:54:08.373Z,82.00
2019-05-26T20:56:37.923Z,81.30
2019-05-26T20:59:07.460Z,81.40
2019-05-26T21:01:36.983Z,81.30
2019-05-26T21:04:06.526Z,80.70
2019-05-26T21:06:36.099Z,80.80
2019-05-26T21:09:11.143Z,81.00
2019-05-26T21:11:39.051Z,81.40
2019-05-26T21:14:08.603Z,80.90
2019-05-26T21:16:38.241Z,80.60
2019-05-26T21:19:07.900Z,80.80
2019-05-26T21:21:37.536Z,80.50
2019-05-26T21:24:07.150Z,80.60
2019-05-26T21:26:36.695Z,80.60
2019-05-26T21:29:06.421Z,80.60
2019-05-26T21:31:35.973Z,80.00
2019-05-26T21:34:05.678Z,80.50
2019-05-26T21:36:35.288Z,80.80
2019-05-26T21:39:07.541Z,81.10
2019-05-26T21:41:37.090Z,80.90
2019-05-26T21:44:06.714Z,81.30
2019-05-26T21:46:36.279Z,81.40
2019-05-26T21:49:05.987Z,81.10
2019-05-26T21:51:35.594Z,81.30
2019-05-26T21:54:05.305Z,81.30
2019-05-26T21:56:35.929Z,80.90
2019-05-26T21:59:05.628Z,81.00
2019-05-26T22:01:35.328Z,81.00
2019-05-26T22:04:05.428Z,81.20
2019-05-26T22:06:35.099Z,82.00
2019-05-26T22:09:07.525Z,81.50
2019-05-26T22:11:37.078Z,81.50
2019-05-26T22:14:07.708Z,81.60
2019-05-26T22:16:37.349Z,81.90
2019-05-26T22:19:06.962Z,82.70
2019-05-26T22:21:36.516Z,82.70
2019-05-26T22:24:06.162Z,83.10
2019-05-26T22:26:35.769Z,83.00
2019-05-26T22:29:05.464Z,82.70
2019-05-26T22:31:36.099Z,82.60
2019-05-26T22:34:05.663Z,83.30
2019-05-26T22:36:35.684Z,84.20
2019-05-26T22:39:07.073Z,84.80
2019-05-26T22:41:36.987Z,85.20
2019-05-26T22:44:06.592Z,85.80
2019-05-26T22:46:36.278Z,86.70
2019-05-26T22:49:06.011Z,86.80
2019-05-26T22:51:35.581Z,87.40
2019-05-26T22:54:05.122Z,87.80
2019-05-26T22:56:34.811Z,88.40
2019-05-26T22:59:04.535Z,89.10
2019-05-26T23:01:34.216Z,89.60
2019-05-26T23:04:05.038Z,89.60
2019-05-26T23:06:34.719Z,90.00
2019-05-26T23:09:05.559Z,90.10
2019-05-26T23:11:35.240Z,90.20
2019-05-26T23:14:05.002Z,90.20
2019-05-26T23:16:34.683Z,90.30
2019-05-26T23:19:18.351Z,90.40
2019-05-26T23:21:35.618Z,90.50
2019-05-26T23:24:05.256Z,90.70
2019-05-26T23:26:35.182Z,90.70
2019-05-26T23:29:04.957Z,90.90
2019-05-26T23:31:34.582Z,91.00
2019-05-26T23:34:04.220Z,91.00
2019-05-26T23:36:33.776Z,91.10
2019-05-26T23:39:05.438Z,91.40
2019-05-26T23:41:35.042Z,91.60
2019-05-26T23:44:04.734Z,92.00
2019-05-26T23:46:36.449Z,92.40
2019-05-26T23:49:06.025Z,92.80
2019-05-26T23:51:35.730Z,93.70
2019-05-26T23:54:05.409Z,94.10
2019-05-26T23:56:34.987Z,94.60
2019-05-26T23:59:04.682Z,94.60
